createdAt,value
2023-01-29T00:00:05.569Z,10.73
2023-01-29T00:03:14.160Z,10.63
2023-01-29T00:06:15.745Z,11.02
2023-01-29T00:09:18.235Z,11.35
2023-01-29T00:12:19.728Z,10.90
2023-01-29T00:15:21.348Z,11.90
2023-01-29T00:18:23.054Z,12.18
2023-01-29T00:21:25.026Z,12.43
2023-01-29T00:24:26.591Z,12.23
2023-01-29T00:27:28.057Z,12.02
2023-01-29T00:30:29.596Z,13.38
2023-01-29T00:33:31.064Z,13.02
2023-01-29T00:36:32.575Z,11.95
2023-01-29T00:39:47.115Z,11.80
2023-01-29T00:45:51.621Z,11.23
2023-01-29T00:48:53.559Z,11.65
2023-01-29T00:51:54.977Z,11.18
2023-01-29T00:54:58.604Z,11.35
2023-01-29T00:58:00.151Z,11.15
2023-01-29T01:01:02.395Z,12.07
2023-01-29T01:04:04.131Z,11.95
2023-01-29T01:07:06.262Z,11.45
2023-01-29T01:10:15.510Z,12.38
2023-01-29T01:13:17.192Z,11.75
2023-01-29T01:16:18.733Z,11.70
2023-01-29T01:19:20.379Z,12.23
2023-01-29T01:22:22.042Z,12.35
2023-01-29T01:25:26.026Z,11.45
2023-01-29T01:28:28.242Z,10.95
2023-01-29T01:31:29.994Z,11.57
2023-01-29T01:34:32.102Z,11.43
2023-01-29T01:37:33.632Z,12.25
2023-01-29T01:40:35.310Z,11.40
2023-01-29T01:43:59.177Z,11.88
2023-01-29T01:47:01.610Z,12.03
2023-01-29T01:50:09.894Z,12.10
2023-01-29T01:53:25.816Z,11.20
2023-01-29T01:56:32.324Z,11.20
2023-01-29T01:59:34.044Z,12.45
2023-01-29T02:02:37.784Z,12.57
2023-01-29T02:05:39.995Z,13.43
2023-01-29T02:09:04.161Z,12.30
2023-01-29T02:12:08.893Z,12.27
2023-01-29T02:15:11.063Z,12.82
2023-01-29T02:18:14.289Z,12.55
2023-01-29T02:21:45.354Z,13.65
2023-01-29T02:24:59.098Z,13.10
2023-01-29T02:28:31.009Z,12.05
2023-01-29T02:31:46.148Z,11.85
2023-01-29T02:35:09.148Z,13.02
2023-01-29T02:38:23.952Z,12.90
2023-01-29T02:41:42.974Z,13.27
2023-01-29T02:44:57.105Z,12.68
2023-01-29T02:48:01.549Z,12.90
2023-01-29T02:51:08.785Z,14.00
2023-01-29T02:54:20.238Z,13.43
2023-01-29T02:57:26.714Z,13.77
2023-01-29T03:00:34.961Z,13.25
2023-01-29T03:03:41.859Z,13.80
2023-01-29T03:06:50.451Z,13.93
2023-01-29T03:09:54.249Z,12.85
2023-01-29T03:13:02.479Z,14.05
2023-01-29T03:16:42.562Z,13.27
2023-01-29T03:19:46.874Z,13.20
2023-01-29T03:23:00.567Z,14.43
2023-01-29T03:26:02.210Z,13.93
2023-01-29T03:29:07.805Z,14.23
2023-01-29T03:32:11.875Z,15.10
2023-01-29T03:35:17.158Z,15.75
2023-01-29T03:38:19.807Z,15.45
2023-01-29T03:41:29.052Z,15.25
2023-01-29T03:45:08.306Z,14.80
2023-01-29T03:48:36.510Z,15.70
2023-01-29T03:51:43.479Z,16.45
2023-01-29T03:54:54.140Z,15.95
2023-01-29T03:58:00.631Z,15.38
2023-01-29T04:01:18.235Z,14.88
2023-01-29T04:04:32.887Z,16.05
2023-01-29T04:07:36.150Z,16.42
2023-01-29T04:10:42.617Z,16.60
2023-01-29T04:13:46.061Z,16.75
2023-01-29T04:16:54.154Z,15.85
2023-01-29T04:20:04.323Z,15.93
2023-01-29T04:23:18.652Z,14.77
2023-01-29T04:26:44.430Z,16.27
2023-01-29T04:30:21.494Z,16.23
2023-01-29T04:33:47.768Z,15.70
2023-01-29T04:37:04.511Z,15.00
2023-01-29T04:40:13.706Z,15.68
2023-01-29T04:43:25.497Z,14.80
2023-01-29T04:46:49.401Z,16.20
2023-01-29T04:50:07.336Z,14.93
2023-01-29T04:53:35.845Z,14.98
2023-01-29T04:56:43.834Z,15.88
2023-01-29T04:59:50.845Z,15.13
2023-01-29T05:02:53.673Z,15.82
2023-01-29T05:05:57.771Z,15.30
2023-01-29T05:09:01.355Z,15.15
2023-01-29T05:12:05.585Z,14.85
2023-01-29T05:18:14.347Z,15.23
2023-01-29T05:21:16.047Z,14.82
2023-01-29T05:24:24.063Z,15.70
2023-01-29T05:27:34.232Z,13.98
2023-01-29T05:30:38.358Z,14.60
2023-01-29T05:36:41.202Z,14.15
2023-01-29T05:39:42.646Z,14.07
2023-01-29T05:42:44.059Z,15.50
2023-01-29T05:45:59.235Z,15.55
2023-01-29T05:49:00.950Z,15.63
2023-01-29T05:52:02.388Z,14.57
2023-01-29T05:55:04.922Z,15.48
2023-01-29T05:58:06.391Z,13.90
2023-01-29T06:01:16.875Z,15.60
2023-01-29T06:04:18.308Z,15.82
2023-01-29T06:07:19.762Z,15.30
2023-01-29T06:10:21.241Z,15.15
2023-01-29T06:13:23.722Z,15.82
2023-01-29T06:16:25.307Z,14.80
2023-01-29T06:19:26.748Z,15.18
2023-01-29T06:22:28.267Z,16.08
2023-01-29T06:25:29.754Z,15.98
2023-01-29T06:28:31.549Z,14.75
2023-01-29T06:31:38.760Z,15.73
2023-01-29T06:34:40.674Z,14.73
2023-01-29T06:37:42.155Z,14.75
2023-01-29T06:40:43.652Z,15.85
2023-01-29T06:43:45.965Z,14.85
2023-01-29T06:46:47.751Z,15.93
2023-01-29T06:49:49.682Z,15.98
2023-01-29T06:52:51.113Z,16.17
2023-01-29T06:55:53.130Z,15.55
2023-01-29T06:58:54.670Z,15.80
2023-01-29T07:01:56.223Z,15.35
2023-01-29T07:04:57.731Z,15.25
2023-01-29T07:07:59.223Z,16.23
2023-01-29T07:11:01.291Z,15.35
2023-01-29T07:14:02.768Z,16.50
2023-01-29T07:17:04.322Z,15.38
2023-01-29T07:20:06.677Z,14.55
2023-01-29T07:23:14.577Z,16.13
2023-01-29T07:26:16.762Z,16.42
2023-01-29T07:29:18.212Z,15.68
2023-01-29T07:32:19.750Z,15.93
2023-01-29T07:35:21.895Z,16.55
2023-01-29T07:38:23.469Z,15.30
2023-01-29T07:41:24.937Z,16.08
2023-01-29T07:44:26.480Z,16.60
2023-01-29T07:47:27.919Z,16.35
2023-01-29T07:50:29.407Z,16.95
2023-01-29T07:53:31.144Z,15.82
2023-01-29T07:56:32.587Z,14.88
2023-01-29T07:59:34.045Z,15.77
2023-01-29T08:02:35.771Z,15.68
2023-01-29T08:05:37.936Z,15.98
2023-01-29T08:08:39.454Z,16.55
2023-01-29T08:11:40.893Z,15.40
2023-01-29T08:14:42.315Z,16.23
2023-01-29T08:17:57.233Z,16.58
2023-01-29T08:21:00.846Z,17.00
2023-01-29T08:27:09.252Z,15.82
2023-01-29T08:30:11.412Z,16.38
2023-01-29T08:33:13.051Z,16.27
2023-01-29T08:36:14.858Z,16.92
2023-01-29T08:39:16.308Z,15.60
2023-01-29T08:42:17.746Z,17.20
2023-01-29T08:45:19.204Z,15.23
2023-01-29T08:48:20.657Z,16.17
2023-01-29T08:51:22.423Z,16.80
2023-01-29T08:54:24.242Z,15.77
2023-01-29T08:57:25.681Z,16.25
2023-01-29T09:00:27.184Z,15.50
2023-01-29T09:03:28.611Z,16.50
2023-01-29T09:06:30.072Z,16.10
2023-01-29T09:09:31.544Z,16.58
2023-01-29T09:12:33.021Z,16.58
2023-01-29T09:15:35.202Z,16.55
2023-01-29T09:18:36.844Z,16.90
2023-01-29T09:21:38.287Z,16.67
2023-01-29T09:24:39.844Z,16.98
2023-01-29T09:27:41.322Z,17.25
2023-01-29T09:30:43.415Z,18.98
2023-01-29T09:33:44.942Z,17.25
2023-01-29T09:36:46.483Z,17.88
2023-01-29T09:39:48.041Z,17.38
2023-01-29T09:42:57.277Z,17.00
2023-01-29T09:46:04.916Z,17.40
2023-01-29T09:49:18.651Z,16.90
2023-01-29T09:52:25.879Z,16.75
2023-01-29T09:55:34.637Z,17.38
2023-01-29T09:58:39.598Z,17.70
2023-01-29T10:01:56.151Z,16.80
2023-01-29T10:05:12.987Z,17.38
2023-01-29T10:08:44.888Z,18.00
2023-01-29T10:12:08.081Z,18.55
2023-01-29T10:15:09.484Z,17.75
2023-01-29T10:18:23.826Z,17.92
2023-01-29T10:21:56.464Z,16.40
2023-01-29T10:25:02.172Z,18.25
2023-01-29T10:28:03.819Z,18.85
2023-01-29T10:31:32.044Z,18.58
2023-01-29T10:34:41.178Z,19.13
2023-01-29T10:37:43.569Z,19.70
2023-01-29T10:40:58.937Z,19.02
2023-01-29T10:44:25.449Z,19.35
2023-01-29T10:47:51.292Z,19.10
2023-01-29T10:51:05.962Z,19.42
2023-01-29T10:54:37.137Z,19.95
2023-01-29T10:58:05.605Z,18.90
2023-01-29T11:01:09.905Z,18.52
2023-01-29T11:04:14.287Z,19.05
2023-01-29T11:07:19.771Z,19.58
2023-01-29T11:10:23.769Z,18.35
2023-01-29T11:13:32.541Z,19.70
2023-01-29T11:16:46.392Z,19.58
2023-01-29T11:19:49.664Z,18.38
2023-01-29T11:22:54.476Z,19.47
2023-01-29T11:25:57.320Z,19.33
2023-01-29T11:28:58.774Z,20.40
2023-01-29T11:32:04.830Z,20.70
2023-01-29T11:35:12.147Z,20.90
2023-01-29T11:38:16.718Z,19.50
2023-01-29T11:41:18.142Z,19.70
2023-01-29T11:44:26.153Z,20.63
2023-01-29T11:47:30.164Z,19.50
2023-01-29T11:50:33.628Z,20.00
2023-01-29T11:53:49.410Z,19.92
2023-01-29T11:56:50.952Z,21.50
2023-01-29T11:59:54.554Z,20.52
2023-01-29T12:03:24.938Z,20.23
2023-01-29T12:06:36.555Z,18.90
2023-01-29T12:09:38.218Z,17.95
2023-01-29T12:12:45.691Z,18.33
2023-01-29T12:16:10.358Z,18.50
2023-01-29T12:19:25.984Z,19.80
2023-01-29T12:22:41.861Z,20.17
2023-01-29T12:26:03.098Z,19.38
2023-01-29T12:29:27.125Z,19.38
2023-01-29T12:32:39.069Z,18.40
2023-01-29T12:35:50.287Z,19.67
2023-01-29T12:38:55.172Z,17.02
2023-01-29T12:42:03.121Z,18.33
2023-01-29T12:45:09.752Z,18.10
2023-01-29T12:48:17.245Z,16.45
2023-01-29T12:51:25.744Z,18.33
2023-01-29T12:55:26.506Z,17.05
2023-01-29T12:58:51.663Z,17.77
2023-01-29T13:02:04.247Z,17.95
2023-01-29T13:05:24.239Z,16.60
2023-01-29T13:08:38.408Z,17.80
2023-01-29T13:11:48.616Z,16.95
2023-01-29T13:15:15.517Z,16.95
2023-01-29T13:18:33.560Z,16.35
2023-01-29T13:21:39.966Z,17.60
2023-01-29T13:25:03.704Z,17.02
2023-01-29T13:28:15.280Z,16.25
2023-01-29T13:31:23.264Z,18.13
2023-01-29T13:34:27.917Z,17.23
2023-01-29T13:37:46.298Z,16.08
2023-01-29T13:40:51.338Z,16.05
2023-01-29T13:43:54.103Z,15.43
2023-01-29T13:46:59.815Z,17.88
2023-01-29T13:50:18.370Z,16.73
2023-01-29T13:53:26.916Z,17.23
2023-01-29T13:56:32.909Z,16.08
2023-01-29T13:59:53.237Z,15.80
2023-01-29T14:02:55.915Z,16.75
2023-01-29T14:06:00.112Z,16.67
2023-01-29T14:09:38.154Z,15.70
2023-01-29T14:12:58.244Z,16.17
2023-01-29T14:16:00.167Z,16.73
2023-01-29T14:19:04.600Z,15.35
2023-01-29T14:22:06.184Z,14.75
2023-01-29T14:25:16.251Z,15.25
2023-01-29T14:28:24.659Z,15.05
2023-01-29T14:31:30.403Z,15.95
2023-01-29T14:34:41.434Z,16.63
2023-01-29T14:37:47.172Z,15.13
2023-01-29T14:40:48.801Z,14.60
2023-01-29T14:43:50.308Z,15.43
2023-01-29T14:46:52.799Z,15.63
2023-01-29T14:49:56.805Z,15.25
2023-01-29T14:53:10.755Z,16.08
2023-01-29T14:56:21.267Z,14.40
2023-01-29T14:59:51.538Z,14.25
2023-01-29T15:03:01.701Z,14.88
2023-01-29T15:06:06.167Z,15.63
2023-01-29T15:09:13.055Z,15.40
2023-01-29T15:12:44.933Z,15.00
2023-01-29T15:15:54.935Z,15.60
2023-01-29T15:19:12.095Z,15.68
2023-01-29T15:22:17.642Z,16.10
2023-01-29T15:25:19.676Z,15.68
2023-01-29T15:28:22.156Z,16.48
2023-01-29T15:31:24.207Z,15.60
2023-01-29T15:34:26.067Z,16.88
2023-01-29T15:37:33.356Z,17.52
2023-01-29T15:40:35.951Z,15.88
2023-01-29T15:43:44.331Z,16.77
2023-01-29T15:46:51.392Z,17.15
2023-01-29T15:49:53.046Z,16.10
2023-01-29T15:52:55.909Z,15.80
2023-01-29T15:55:57.479Z,15.52
2023-01-29T15:59:04.008Z,16.52
2023-01-29T16:02:34.724Z,16.25
2023-01-29T16:05:37.495Z,16.67
2023-01-29T16:08:40.064Z,18.27
2023-01-29T16:11:41.769Z,18.15
2023-01-29T16:14:44.217Z,19.77
2023-01-29T16:17:45.871Z,17.40
2023-01-29T16:20:52.529Z,18.50
2023-01-29T16:23:58.397Z,18.80
2023-01-29T16:27:07.156Z,16.95
2023-01-29T16:30:14.183Z,18.83
2023-01-29T16:33:17.192Z,20.27
2023-01-29T16:36:21.486Z,19.92
2023-01-29T16:39:26.276Z,19.20
2023-01-29T16:42:29.939Z,19.48
2023-01-29T16:45:31.454Z,18.05
2023-01-29T16:48:34.805Z,17.90
2023-01-29T16:51:39.310Z,19.08
2023-01-29T16:54:43.883Z,19.13
2023-01-29T16:57:50.521Z,18.75
2023-01-29T17:00:59.631Z,19.42
2023-01-29T17:04:13.127Z,18.42
2023-01-29T17:07:18.313Z,18.33
2023-01-29T17:10:21.374Z,19.52
2023-01-29T17:13:40.027Z,18.73
2023-01-29T17:17:01.479Z,20.00
2023-01-29T17:20:13.190Z,19.23
2023-01-29T17:23:14.694Z,18.48
2023-01-29T17:26:16.611Z,19.20
2023-01-29T17:29:20.841Z,18.80
2023-01-29T17:35:24.525Z,19.00
2023-01-29T17:38:26.854Z,18.98
2023-01-29T17:41:30.110Z,18.33
2023-01-29T17:44:31.602Z,18.67
2023-01-29T17:47:33.056Z,20.05
2023-01-29T17:50:35.755Z,18.77
2023-01-29T17:53:45.258Z,19.88
2023-01-29T17:56:48.470Z,18.20
2023-01-29T17:59:49.982Z,19.38
2023-01-29T18:02:51.471Z,19.58
2023-01-29T18:05:52.953Z,20.25
2023-01-29T18:08:54.616Z,20.50
2023-01-29T18:11:56.100Z,20.23
2023-01-29T18:14:57.564Z,20.40
2023-01-29T18:17:59.116Z,19.30
2023-01-29T18:21:00.604Z,19.60
2023-01-29T18:24:02.030Z,19.27
2023-01-29T18:27:03.698Z,19.73
2023-01-29T18:30:05.958Z,19.23
2023-01-29T18:33:07.437Z,19.02
2023-01-29T18:36:08.962Z,20.25
2023-01-29T18:39:10.476Z,19.00
2023-01-29T18:42:11.923Z,18.25
2023-01-29T18:45:31.973Z,20.52
2023-01-29T18:48:34.388Z,18.45
2023-01-29T18:51:36.066Z,19.25
2023-01-29T18:54:37.491Z,18.55
2023-01-29T18:58:29.356Z,19.77
2023-01-29T19:01:00.416Z,17.90
2023-01-29T19:04:01.872Z,18.35
2023-01-29T19:07:03.399Z,18.70
2023-01-29T19:10:05.813Z,17.65
2023-01-29T19:13:07.935Z,17.90
2023-01-29T19:16:10.788Z,18.33
2023-01-29T19:19:12.308Z,16.95
2023-01-29T19:22:13.864Z,17.33
2023-01-29T19:25:16.264Z,18.80
2023-01-29T19:28:18.080Z,18.63
2023-01-29T19:31:19.815Z,18.38
2023-01-29T19:34:21.323Z,16.90
2023-01-29T19:37:22.884Z,19.10
2023-01-29T19:40:24.456Z,19.50
2023-01-29T19:43:30.186Z,17.98
2023-01-29T19:46:32.069Z,19.45
2023-01-29T19:49:33.499Z,19.10
2023-01-29T19:52:51.130Z,19.33
2023-01-29T19:56:10.087Z,18.25
2023-01-29T19:59:11.734Z,19.63
2023-01-29T20:02:14.673Z,18.33
2023-01-29T20:05:29.074Z,19.33
2023-01-29T20:08:34.941Z,20.58
2023-01-29T20:11:36.478Z,21.83
2023-01-29T20:14:38.004Z,20.85
2023-01-29T20:17:39.791Z,20.20
2023-01-29T20:20:42.887Z,20.13
2023-01-29T20:23:45.946Z,20.63
2023-01-29T20:26:47.696Z,21.08
2023-01-29T20:29:49.361Z,22.15
2023-01-29T20:32:50.838Z,20.95
2023-01-29T20:35:57.323Z,21.23
2023-01-29T20:38:59.280Z,21.60
2023-01-29T20:42:00.826Z,21.02
2023-01-29T20:45:02.706Z,22.00
2023-01-29T20:48:04.425Z,21.33
2023-01-29T20:51:12.033Z,22.88
2023-01-29T20:54:13.540Z,22.25
2023-01-29T20:57:15.375Z,21.25
2023-01-29T21:00:17.487Z,23.05
2023-01-29T21:03:19.255Z,24.23
2023-01-29T21:06:21.075Z,20.63
2023-01-29T21:09:22.975Z,22.60
2023-01-29T21:12:24.743Z,22.70
2023-01-29T21:15:29.737Z,22.73
2023-01-29T21:18:31.530Z,21.35
2023-01-29T21:21:33.012Z,20.90
2023-01-29T21:24:34.507Z,21.38
2023-01-29T21:27:36.411Z,21.33
2023-01-29T21:30:38.777Z,22.13
2023-01-29T21:33:43.769Z,22.23
2023-01-29T21:36:45.529Z,21.25
2023-01-29T21:39:50.067Z,20.20
2023-01-29T21:42:54.258Z,21.83
2023-01-29T21:45:57.977Z,20.30
2023-01-29T21:48:59.610Z,20.95
2023-01-29T21:52:01.315Z,20.83
2023-01-29T21:55:03.473Z,23.40
2023-01-29T21:58:05.274Z,23.27
2023-01-29T22:01:36.829Z,22.65
2023-01-29T22:04:28.824Z,23.35
2023-01-29T22:07:30.511Z,22.63
2023-01-29T22:10:32.257Z,21.80
2023-01-29T22:13:36.917Z,23.30
2023-01-29T22:16:41.472Z,21.83
2023-01-29T22:19:43.440Z,23.10
2023-01-29T22:22:45.033Z,21.25
2023-01-29T22:25:46.507Z,21.10
2023-01-29T22:28:48.006Z,20.77
2023-01-29T22:31:49.443Z,19.77
2023-01-29T22:34:50.905Z,19.92
2023-01-29T22:37:52.433Z,19.35
2023-01-29T22:40:55.621Z,20.70
2023-01-29T22:43:57.086Z,18.95
2023-01-29T22:46:58.582Z,17.98
2023-01-29T22:50:00.126Z,17.40
2023-01-29T22:53:01.596Z,16.92
2023-01-29T22:56:03.237Z,16.65
2023-01-29T22:59:04.670Z,14.98
2023-01-29T23:02:07.525Z,15.05
2023-01-29T23:05:09.193Z,15.23
2023-01-29T23:08:10.608Z,13.90
2023-01-29T23:11:15.742Z,11.63
2023-01-29T23:14:17.338Z,11.25
2023-01-29T23:17:18.951Z,9.35
2023-01-29T23:20:20.408Z,9.52
2023-01-29T23:23:21.908Z,8.95
2023-01-29T23:26:24.198Z,8.25
2023-01-29T23:29:25.706Z,7.00
2023-01-29T23:32:27.142Z,7.13
2023-01-29T23:35:28.573Z,7.10
2023-01-29T23:38:30.256Z,6.40
2023-01-29T23:41:31.778Z,7.05
2023-01-29T23:44:33.267Z,6.65
2023-01-29T23:47:34.718Z,6.53
2023-01-29T23:50:36.174Z,6.35
2023-01-29T23:53:37.712Z,6.15
2023-01-29T23:56:39.395Z,6.28
2023-01-29T23:59:40.900Z,6.22
